TAF Text Data
IDs:
Format:
Raw Decoded Include METAR

Data at: 0748 UTC 27 Feb 2020

KTCL 270520Z 2706/2806 32010KT P6SM -SHSN OVC040
  FM271500 31009KT P6SM SCT250
  FM280000 23002KT P6SM SKC